createdAt,value
2022-11-19T00:01:16.823Z,18.53
2022-11-19T00:03:48.656Z,21.47
2022-11-19T00:06:26.654Z,19.33
2022-11-19T00:08:54.391Z,17.87
2022-11-19T00:11:42.193Z,19.10
2022-11-19T00:14:12.327Z,18.30
2022-11-19T00:16:39.563Z,17.47
2022-11-19T00:19:07.025Z,16.50
2022-11-19T00:21:34.190Z,18.90
2022-11-19T00:24:01.040Z,19.20
2022-11-19T00:26:27.788Z,17.00
2022-11-19T00:28:55.241Z,18.77
2022-11-19T00:31:22.366Z,18.77
2022-11-19T00:33:50.784Z,18.40
2022-11-19T00:36:17.949Z,19.37
2022-11-19T00:38:44.773Z,18.27
2022-11-19T00:41:11.824Z,18.13
2022-11-19T00:43:47.815Z,17.73
2022-11-19T00:46:15.887Z,17.60
2022-11-19T00:48:42.989Z,17.43
2022-11-19T00:51:10.828Z,17.00
2022-11-19T00:53:38.268Z,16.03
2022-11-19T00:56:07.796Z,16.67
2022-11-19T00:58:34.685Z,18.47
2022-11-19T01:01:01.859Z,17.43
2022-11-19T01:03:28.791Z,17.30
2022-11-19T01:05:55.542Z,17.73
2022-11-19T01:08:22.451Z,18.43
2022-11-19T01:10:49.669Z,16.33
2022-11-19T01:13:34.718Z,17.67
2022-11-19T01:16:12.996Z,17.07
2022-11-19T01:18:40.896Z,15.80
2022-11-19T01:21:09.289Z,15.90
2022-11-19T01:23:36.238Z,17.33
2022-11-19T01:26:03.245Z,17.20
2022-11-19T01:28:30.610Z,16.90
2022-11-19T01:30:57.554Z,16.80
2022-11-19T01:33:24.731Z,17.57
2022-11-19T01:36:00.002Z,16.50
2022-11-19T01:38:28.232Z,16.77
2022-11-19T01:40:55.602Z,16.30
2022-11-19T01:43:46.738Z,16.80
2022-11-19T01:46:16.025Z,16.83
2022-11-19T01:49:02.950Z,15.10
2022-11-19T01:51:34.538Z,16.83
2022-11-19T01:54:07.522Z,16.70
2022-11-19T01:56:34.449Z,16.57
2022-11-19T01:59:07.179Z,16.60
2022-11-19T02:01:34.340Z,16.60
2022-11-19T02:04:02.984Z,15.50
2022-11-19T02:06:31.070Z,15.03
2022-11-19T02:08:57.898Z,16.03
2022-11-19T02:12:02.852Z,16.53
2022-11-19T02:14:39.378Z,14.47
2022-11-19T02:17:21.823Z,15.77
2022-11-19T02:20:03.649Z,15.87
2022-11-19T02:23:18.434Z,16.13
2022-11-19T02:25:57.622Z,15.50
2022-11-19T02:28:37.157Z,16.10
2022-11-19T02:31:28.287Z,15.70
2022-11-19T02:34:35.276Z,14.50
2022-11-19T02:37:21.238Z,15.73
2022-11-19T02:40:02.804Z,16.77
2022-11-19T02:42:38.785Z,15.13
2022-11-19T02:45:32.612Z,16.80
2022-11-19T02:48:04.633Z,16.80
2022-11-19T02:50:34.916Z,15.83
2022-11-19T02:53:03.923Z,14.50
2022-11-19T02:55:31.132Z,16.50
2022-11-19T02:58:11.787Z,14.83
2022-11-19T03:01:08.325Z,15.70
2022-11-19T03:03:54.406Z,15.77
2022-11-19T03:06:26.715Z,15.20
2022-11-19T03:08:53.586Z,15.93
2022-11-19T03:11:21.281Z,16.87
2022-11-19T03:14:34.570Z,16.30
2022-11-19T03:17:27.197Z,14.90
2022-11-19T03:20:01.045Z,15.20
2022-11-19T03:22:28.175Z,15.33
2022-11-19T03:25:02.029Z,16.27
2022-11-19T03:27:39.764Z,15.17
2022-11-19T03:30:08.216Z,13.70
2022-11-19T03:32:46.444Z,16.53
2022-11-19T03:35:22.975Z,14.57
2022-11-19T03:37:53.751Z,13.50
2022-11-19T03:40:22.836Z,14.67
2022-11-19T03:42:52.936Z,13.83
2022-11-19T03:45:27.161Z,14.07
2022-11-19T03:47:56.037Z,14.90
2022-11-19T03:50:35.210Z,14.60
2022-11-19T03:53:04.592Z,16.23
2022-11-19T03:55:37.003Z,13.80
2022-11-19T03:58:09.571Z,14.20
2022-11-19T04:00:38.234Z,15.30
2022-11-19T04:03:05.112Z,14.10
2022-11-19T04:05:32.254Z,15.03
2022-11-19T04:07:58.923Z,13.43
2022-11-19T04:10:26.080Z,14.67
2022-11-19T04:12:53.231Z,13.50
2022-11-19T04:15:20.061Z,14.97
2022-11-19T04:17:47.282Z,14.87
2022-11-19T04:20:14.314Z,14.70
2022-11-19T04:22:42.103Z,14.07
2022-11-19T04:25:09.342Z,13.87
2022-11-19T04:27:36.493Z,15.27
2022-11-19T04:30:03.989Z,14.10
2022-11-19T04:32:31.459Z,14.23
2022-11-19T04:34:58.557Z,14.03
2022-11-19T04:37:25.655Z,15.53
2022-11-19T04:39:52.752Z,13.20
2022-11-19T04:42:19.849Z,13.47
2022-11-19T04:44:46.946Z,14.90
2022-11-19T04:47:13.827Z,14.70
2022-11-19T04:49:40.960Z,14.37
2022-11-19T04:52:08.062Z,15.23
2022-11-19T04:54:34.801Z,14.10
2022-11-19T04:57:01.914Z,14.80
2022-11-19T04:59:28.729Z,14.60
2022-11-19T05:01:55.910Z,15.23
2022-11-19T05:04:23.106Z,13.80
2022-11-19T05:06:49.799Z,13.40
2022-11-19T05:09:17.143Z,14.50
2022-11-19T05:11:44.630Z,15.33
2022-11-19T05:14:11.764Z,14.17
2022-11-19T05:16:38.900Z,14.30
2022-11-19T05:19:06.078Z,14.90
2022-11-19T05:21:33.287Z,14.43
2022-11-19T05:24:00.420Z,13.97
2022-11-19T05:26:27.603Z,14.10
2022-11-19T05:28:54.730Z,15.20
2022-11-19T05:31:21.790Z,14.23
2022-11-19T05:33:48.990Z,14.80
2022-11-19T05:36:16.411Z,14.33
2022-11-19T05:38:43.565Z,13.67
2022-11-19T05:41:10.381Z,14.20
2022-11-19T05:43:37.497Z,13.50
2022-11-19T05:46:04.660Z,14.50
2022-11-19T05:48:31.800Z,13.90
2022-11-19T05:50:58.951Z,15.40
2022-11-19T05:53:26.633Z,13.80
2022-11-19T05:55:53.381Z,14.07
2022-11-19T05:58:20.490Z,15.03
2022-11-19T06:00:47.572Z,13.30
2022-11-19T06:03:14.317Z,14.43
2022-11-19T06:05:42.003Z,13.27
2022-11-19T06:08:09.136Z,15.20
2022-11-19T06:10:35.888Z,13.97
2022-11-19T06:13:03.008Z,12.93
2022-11-19T06:15:30.116Z,14.50
2022-11-19T06:17:57.099Z,13.20
2022-11-19T06:20:23.994Z,13.83
2022-11-19T06:22:51.886Z,12.97
2022-11-19T06:25:19.024Z,14.33
2022-11-19T06:27:45.761Z,15.13
2022-11-19T06:30:13.373Z,13.27
2022-11-19T06:32:40.939Z,14.93
2022-11-19T06:35:08.239Z,15.03
2022-11-19T06:37:34.956Z,13.40
2022-11-19T06:40:02.281Z,14.40
2022-11-19T06:42:38.134Z,14.70
2022-11-19T06:45:10.084Z,14.70
2022-11-19T06:47:37.649Z,13.77
2022-11-19T06:50:05.967Z,14.37
2022-11-19T06:52:32.872Z,12.80
2022-11-19T06:55:00.001Z,14.37
2022-11-19T06:57:26.936Z,13.07
2022-11-19T06:59:53.731Z,13.63
2022-11-19T07:02:21.729Z,13.70
2022-11-19T07:04:49.028Z,15.10
2022-11-19T07:07:16.207Z,14.43
2022-11-19T07:09:43.384Z,14.10
2022-11-19T07:12:10.522Z,13.80
2022-11-19T07:14:37.406Z,13.73
2022-11-19T07:17:05.328Z,13.63
2022-11-19T07:19:32.421Z,13.47
2022-11-19T07:21:59.586Z,14.10
2022-11-19T07:24:26.811Z,13.10
2022-11-19T07:26:53.969Z,12.60
2022-11-19T07:29:21.312Z,14.10
2022-11-19T07:31:50.600Z,12.40
2022-11-19T07:34:17.809Z,14.10
2022-11-19T07:36:45.496Z,13.60
2022-11-19T07:39:12.756Z,13.33
2022-11-19T07:41:58.082Z,14.10
2022-11-19T07:44:25.210Z,13.87
2022-11-19T07:46:52.075Z,13.60
2022-11-19T07:49:19.671Z,13.70
2022-11-19T07:51:46.960Z,13.20
2022-11-19T07:54:14.435Z,13.40
2022-11-19T07:56:41.559Z,12.80
2022-11-19T07:59:08.551Z,12.83
2022-11-19T08:01:35.383Z,12.83
2022-11-19T08:04:03.004Z,12.03
2022-11-19T08:06:30.181Z,13.10
2022-11-19T08:08:57.439Z,13.53
2022-11-19T08:11:24.833Z,12.53
2022-11-19T08:13:52.665Z,11.83
2022-11-19T08:16:38.295Z,12.30
2022-11-19T08:19:08.770Z,11.20
2022-11-19T08:21:37.025Z,12.30
2022-11-19T08:24:04.103Z,11.80
2022-11-19T08:26:31.231Z,12.50
2022-11-19T08:28:57.917Z,14.37
2022-11-19T08:31:25.007Z,13.37
2022-11-19T08:33:52.574Z,12.63
2022-11-19T08:36:19.463Z,13.33
2022-11-19T08:38:46.627Z,11.90
2022-11-19T08:41:32.156Z,11.57
2022-11-19T08:44:02.278Z,10.13
2022-11-19T08:46:29.462Z,11.30
2022-11-19T08:48:56.206Z,10.70
2022-11-19T08:51:23.082Z,10.73
2022-11-19T08:53:54.638Z,10.97
2022-11-19T08:56:22.007Z,9.40
2022-11-19T08:58:48.939Z,10.50
2022-11-19T09:01:17.477Z,10.60
2022-11-19T09:03:44.486Z,10.87
2022-11-19T09:06:12.245Z,10.37
2022-11-19T09:08:39.552Z,10.30
2022-11-19T09:11:11.595Z,11.73
2022-11-19T09:13:38.640Z,11.17
2022-11-19T09:16:05.997Z,12.80
2022-11-19T09:18:33.062Z,11.03
2022-11-19T09:21:00.264Z,10.80
2022-11-19T09:23:27.997Z,10.77
2022-11-19T09:25:59.586Z,11.10
2022-11-19T09:28:27.380Z,9.83
2022-11-19T09:31:01.726Z,10.57
2022-11-19T09:33:31.288Z,10.20
2022-11-19T09:35:58.157Z,11.67
2022-11-19T09:38:25.270Z,10.10
2022-11-19T09:40:54.362Z,11.73
2022-11-19T09:43:40.576Z,11.10
2022-11-19T09:46:07.668Z,11.87
2022-11-19T09:48:37.523Z,10.80
2022-11-19T09:51:11.280Z,9.60
2022-11-19T09:53:51.045Z,10.47
2022-11-19T09:56:29.654Z,9.90
2022-11-19T09:58:58.886Z,10.20
2022-11-19T10:01:28.187Z,10.97
2022-11-19T10:03:55.127Z,10.80
2022-11-19T10:06:25.656Z,10.80
2022-11-19T10:09:17.881Z,10.90
2022-11-19T10:11:47.703Z,11.10
2022-11-19T10:14:28.879Z,9.90
2022-11-19T10:17:18.810Z,10.20
2022-11-19T10:20:10.229Z,9.30
2022-11-19T10:22:37.353Z,10.53
2022-11-19T10:25:17.728Z,10.97
2022-11-19T10:27:55.034Z,9.53
2022-11-19T10:30:24.730Z,11.07
2022-11-19T10:33:09.927Z,11.60
2022-11-19T10:35:56.022Z,11.23
2022-11-19T10:38:33.605Z,9.47
2022-11-19T10:41:15.416Z,8.73
2022-11-19T10:43:48.710Z,8.30
2022-11-19T10:46:19.863Z,8.47
2022-11-19T10:48:57.558Z,9.10
2022-11-19T10:51:29.694Z,9.87
2022-11-19T10:53:57.340Z,10.03
2022-11-19T10:56:38.634Z,9.40
2022-11-19T10:59:12.341Z,8.97
2022-11-19T11:01:42.719Z,9.33
2022-11-19T11:04:28.418Z,9.17
2022-11-19T11:06:56.845Z,10.30
2022-11-19T11:09:35.974Z,9.93
2022-11-19T11:12:36.473Z,9.20
2022-11-19T11:15:22.050Z,8.53
2022-11-19T11:18:10.395Z,9.80
2022-11-19T11:20:40.092Z,8.73
2022-11-19T11:23:13.672Z,8.33
2022-11-19T11:25:41.244Z,7.47
2022-11-19T11:28:20.455Z,8.40
2022-11-19T11:30:58.973Z,8.30
2022-11-19T11:33:41.448Z,7.33
2022-11-19T11:36:18.533Z,8.13
2022-11-19T11:38:55.199Z,8.23
2022-11-19T11:44:33.347Z,7.80
2022-11-19T11:47:05.011Z,8.30
2022-11-19T11:49:39.126Z,8.57
2022-11-19T11:52:09.432Z,7.17
2022-11-19T11:54:38.610Z,7.00
2022-11-19T11:57:30.150Z,8.13
2022-11-19T11:59:57.458Z,6.50
2022-11-19T12:02:35.697Z,6.97
2022-11-19T12:05:18.030Z,7.80
2022-11-19T12:07:45.251Z,7.97
2022-11-19T12:10:34.417Z,6.83
2022-11-19T12:13:30.870Z,8.13
2022-11-19T12:16:40.778Z,9.20
2022-11-19T12:19:26.346Z,7.30
2022-11-19T12:22:07.766Z,6.30
2022-11-19T12:25:05.311Z,6.33
2022-11-19T12:27:51.032Z,6.87
2022-11-19T12:30:20.633Z,6.80
2022-11-19T12:32:50.245Z,7.40
2022-11-19T12:35:29.007Z,6.10
2022-11-19T12:38:20.569Z,6.00
2022-11-19T12:41:06.214Z,5.57
2022-11-19T12:43:44.946Z,5.37
2022-11-19T12:46:58.075Z,5.30
2022-11-19T12:49:37.068Z,5.20
2022-11-19T12:52:06.687Z,6.00
2022-11-19T12:55:01.225Z,6.57
2022-11-19T12:57:39.974Z,6.70
2022-11-19T13:00:20.017Z,6.10
2022-11-19T13:03:14.822Z,5.93
2022-11-19T13:05:56.239Z,6.37
2022-11-19T13:08:29.005Z,6.67
2022-11-19T13:11:04.786Z,6.57
2022-11-19T13:13:35.254Z,8.57
2022-11-19T13:16:15.146Z,7.77
2022-11-19T13:18:46.273Z,8.60
2022-11-19T13:21:37.522Z,7.30
2022-11-19T13:24:33.639Z,6.90
2022-11-19T13:27:04.286Z,7.70
2022-11-19T13:29:36.528Z,8.00
2022-11-19T13:32:38.482Z,7.10
2022-11-19T13:35:34.233Z,7.70
2022-11-19T13:38:31.128Z,8.53
2022-11-19T13:41:19.533Z,6.30
2022-11-19T13:44:04.871Z,7.90
2022-11-19T13:46:34.783Z,7.20
2022-11-19T13:49:20.122Z,7.40
2022-11-19T13:52:05.981Z,7.63
2022-11-19T13:54:40.598Z,7.03
2022-11-19T13:57:09.415Z,7.97
2022-11-19T13:59:47.396Z,6.97
2022-11-19T14:02:42.041Z,6.73
2022-11-19T14:05:29.146Z,7.73
2022-11-19T14:08:19.186Z,6.90
2022-11-19T14:11:16.162Z,7.13
2022-11-19T14:13:55.433Z,7.60
2022-11-19T14:16:43.859Z,7.10
2022-11-19T14:19:35.023Z,8.00
2022-11-19T14:22:50.712Z,8.90
2022-11-19T14:25:57.755Z,9.83
2022-11-19T14:28:46.521Z,7.83
2022-11-19T14:31:14.750Z,8.57
2022-11-19T14:34:04.058Z,8.30
2022-11-19T14:37:00.545Z,8.30
2022-11-19T14:39:30.736Z,9.47
2022-11-19T14:42:21.154Z,8.70
2022-11-19T14:45:03.389Z,8.10
2022-11-19T14:47:37.397Z,7.77
2022-11-19T14:50:10.545Z,8.50
2022-11-19T14:52:52.427Z,9.50
2022-11-19T14:55:25.131Z,9.23
2022-11-19T14:58:16.940Z,8.70
2022-11-19T15:00:44.146Z,8.90
2022-11-19T15:03:21.075Z,10.00
2022-11-19T15:05:48.451Z,10.03
2022-11-19T15:08:18.036Z,9.60
2022-11-19T15:11:03.310Z,10.57
2022-11-19T15:13:32.279Z,11.10
2022-11-19T15:16:14.739Z,11.37
2022-11-19T15:18:41.553Z,11.30
2022-11-19T15:21:21.432Z,10.03
2022-11-19T15:24:07.674Z,10.43
2022-11-19T15:26:52.404Z,9.30
2022-11-19T15:29:29.814Z,9.40
2022-11-19T15:32:20.854Z,9.70
2022-11-19T15:35:16.578Z,9.00
2022-11-19T15:37:48.723Z,9.10
2022-11-19T15:40:35.814Z,10.00
2022-11-19T15:43:30.522Z,9.70
2022-11-19T15:46:11.446Z,9.97
2022-11-19T15:48:57.105Z,10.23
2022-11-19T15:51:24.137Z,9.90
2022-11-19T15:54:04.459Z,10.60
2022-11-19T15:56:48.801Z,10.30
2022-11-19T15:59:17.350Z,9.40
2022-11-19T16:01:44.576Z,10.77
2022-11-19T16:04:16.590Z,10.47
2022-11-19T16:06:50.954Z,11.87
2022-11-19T16:09:22.615Z,11.83
2022-11-19T16:12:08.130Z,12.37
2022-11-19T16:15:14.087Z,10.30
2022-11-19T16:17:47.141Z,11.73
2022-11-19T16:20:14.280Z,12.80
2022-11-19T16:22:54.353Z,11.97
2022-11-19T16:25:36.484Z,12.50
2022-11-19T16:28:12.592Z,13.90
2022-11-19T16:30:47.986Z,13.60
2022-11-19T16:33:24.343Z,18.30
2022-11-19T16:35:53.640Z,19.20
2022-11-19T16:38:28.229Z,15.37
2022-11-19T16:41:15.531Z,17.10
2022-11-19T16:43:48.783Z,19.00
2022-11-19T16:46:20.315Z,29.07
2022-11-19T16:48:50.172Z,32.50
2022-11-19T16:51:34.931Z,21.90
2022-11-19T16:54:04.078Z,15.80
2022-11-19T16:56:45.009Z,18.77
2022-11-19T16:59:21.458Z,15.70
2022-11-19T17:01:55.035Z,15.53
2022-11-19T17:04:30.812Z,13.47
2022-11-19T17:07:00.821Z,11.13
2022-11-19T17:09:47.449Z,12.20
2022-11-19T17:12:28.305Z,12.50
2022-11-19T17:15:01.189Z,12.80
2022-11-19T17:17:39.459Z,12.60
2022-11-19T17:20:30.638Z,13.73
2022-11-19T17:22:58.490Z,12.40
2022-11-19T17:25:25.781Z,12.70
2022-11-19T17:27:56.570Z,11.57
2022-11-19T17:30:26.721Z,12.60
2022-11-19T17:32:56.981Z,16.03
2022-11-19T17:35:44.239Z,16.90
2022-11-19T17:38:13.592Z,14.07
2022-11-19T17:40:51.950Z,14.77
2022-11-19T17:43:41.844Z,14.60
2022-11-19T17:46:09.068Z,13.90
2022-11-19T17:48:39.507Z,15.83
2022-11-19T17:51:06.500Z,17.67
2022-11-19T17:53:33.680Z,17.80
2022-11-19T17:56:02.300Z,19.27
2022-11-19T17:58:29.493Z,18.47
2022-11-19T18:00:56.669Z,18.50
2022-11-19T18:03:23.842Z,17.87
2022-11-19T18:05:50.841Z,18.53
2022-11-19T18:08:17.621Z,18.90
2022-11-19T18:10:47.042Z,18.83
2022-11-19T18:13:20.058Z,16.37
2022-11-19T18:15:47.289Z,17.83
2022-11-19T18:18:14.407Z,18.53
2022-11-19T18:20:41.727Z,17.30
2022-11-19T18:23:13.141Z,18.73
2022-11-19T18:25:40.316Z,18.90
2022-11-19T18:28:07.168Z,17.47
2022-11-19T18:30:34.463Z,19.03
2022-11-19T18:33:01.630Z,19.37
2022-11-19T18:35:28.537Z,19.60
2022-11-19T18:37:55.726Z,20.40
2022-11-19T18:40:22.839Z,18.10
2022-11-19T18:43:08.631Z,18.43
2022-11-19T18:45:36.154Z,16.10
2022-11-19T18:48:03.317Z,15.37
2022-11-19T18:50:30.578Z,16.07
2022-11-19T18:52:57.512Z,16.77
2022-11-19T18:55:24.655Z,21.77
2022-11-19T18:57:51.853Z,19.60
2022-11-19T19:00:19.098Z,23.10
2022-11-19T19:02:46.226Z,21.40
2022-11-19T19:05:13.400Z,18.80
2022-11-19T19:07:40.617Z,16.23
2022-11-19T19:10:07.737Z,15.50
2022-11-19T19:12:34.894Z,15.73
2022-11-19T19:15:02.166Z,15.40
2022-11-19T19:17:30.493Z,17.30
2022-11-19T19:19:58.024Z,17.43
2022-11-19T19:22:24.889Z,18.70
2022-11-19T19:24:57.933Z,18.30
2022-11-19T19:27:25.703Z,17.43
2022-11-19T19:29:52.462Z,18.90
2022-11-19T19:32:19.701Z,18.60
2022-11-19T19:34:46.603Z,19.93
2022-11-19T19:37:13.560Z,17.93
2022-11-19T19:39:40.750Z,19.47
2022-11-19T19:42:07.658Z,19.10
2022-11-19T19:44:34.848Z,22.10
2022-11-19T19:47:02.306Z,24.10
2022-11-19T19:49:29.192Z,27.50
2022-11-19T19:51:56.361Z,26.20
2022-11-19T19:54:23.549Z,23.10
2022-11-19T19:56:52.576Z,24.40
2022-11-19T19:59:20.076Z,26.73
2022-11-19T20:01:47.580Z,25.10
2022-11-19T20:04:14.560Z,23.90
2022-11-19T20:06:46.124Z,23.70
2022-11-19T20:09:13.388Z,22.23
2022-11-19T20:11:40.546Z,22.03
2022-11-19T20:14:07.857Z,22.50
2022-11-19T20:16:35.229Z,24.00
2022-11-19T20:19:02.384Z,22.50
2022-11-19T20:21:31.772Z,23.20
2022-11-19T20:23:58.980Z,27.40
2022-11-19T20:26:28.218Z,22.03
2022-11-19T20:29:03.246Z,20.63
2022-11-19T20:31:31.406Z,21.10
2022-11-19T20:34:00.720Z,20.57
2022-11-19T20:36:29.859Z,21.60
2022-11-19T20:38:57.611Z,20.00
2022-11-19T20:41:43.903Z,23.67
2022-11-19T20:44:22.740Z,21.17
2022-11-19T20:46:55.681Z,21.93
2022-11-19T20:49:25.413Z,19.33
2022-11-19T20:51:53.019Z,18.80
2022-11-19T20:54:21.466Z,16.40
2022-11-19T20:56:49.556Z,16.70
2022-11-19T20:59:16.764Z,16.40
2022-11-19T21:01:43.781Z,15.53
2022-11-19T21:04:13.786Z,16.90
2022-11-19T21:06:40.727Z,14.37
2022-11-19T21:09:07.743Z,18.70
2022-11-19T21:11:34.969Z,15.70
2022-11-19T21:14:02.606Z,13.40
2022-11-19T21:16:29.928Z,14.47
2022-11-19T21:18:57.166Z,13.80
2022-11-19T21:21:25.150Z,14.30
2022-11-19T21:23:52.805Z,14.50
2022-11-19T21:26:24.778Z,13.87
2022-11-19T21:28:55.824Z,15.57
2022-11-19T21:31:38.212Z,18.77
2022-11-19T21:34:13.511Z,16.23
2022-11-19T21:36:42.486Z,20.23
2022-11-19T21:39:09.814Z,17.07
2022-11-19T21:41:37.188Z,15.43
2022-11-19T21:44:05.023Z,16.10
2022-11-19T21:46:32.176Z,16.00
2022-11-19T21:48:59.073Z,15.13
2022-11-19T21:51:26.064Z,13.70
2022-11-19T21:53:57.565Z,15.43
2022-11-19T21:56:25.166Z,14.23
2022-11-19T21:58:52.433Z,14.40
2022-11-19T22:01:19.648Z,18.50
2022-11-19T22:03:46.932Z,20.10
2022-11-19T22:06:14.150Z,16.10
2022-11-19T22:08:42.442Z,18.53
2022-11-19T22:11:28.806Z,17.57
2022-11-19T22:14:07.167Z,16.47
2022-11-19T22:16:37.962Z,18.37
2022-11-19T22:19:05.635Z,15.40
2022-11-19T22:21:33.079Z,18.40
2022-11-19T22:24:00.451Z,20.73
2022-11-19T22:26:27.728Z,20.13
2022-11-19T22:28:55.022Z,22.10
2022-11-19T22:31:22.063Z,20.13
2022-11-19T22:33:51.633Z,19.80
2022-11-19T22:36:19.956Z,19.20
2022-11-19T22:38:47.095Z,20.97
2022-11-19T22:41:16.668Z,18.33
2022-11-19T22:43:44.005Z,20.00
2022-11-19T22:46:12.576Z,20.10
2022-11-19T22:48:39.937Z,20.60
2022-11-19T22:51:11.944Z,20.60
2022-11-19T22:53:39.407Z,19.70
2022-11-19T22:56:08.640Z,20.60
2022-11-19T22:58:37.059Z,19.53
2022-11-19T23:01:05.028Z,20.00
2022-11-19T23:03:32.245Z,20.37
2022-11-19T23:05:59.428Z,20.50
2022-11-19T23:08:26.387Z,19.67
2022-11-19T23:11:01.066Z,19.33
2022-11-19T23:13:33.414Z,18.17
2022-11-19T23:16:00.579Z,19.10
2022-11-19T23:18:27.951Z,20.00
2022-11-19T23:20:59.172Z,17.93
2022-11-19T23:23:26.205Z,19.30
2022-11-19T23:25:57.368Z,17.93
2022-11-19T23:28:26.004Z,18.27
2022-11-19T23:30:53.141Z,18.03
2022-11-19T23:33:20.297Z,17.90
2022-11-19T23:35:47.808Z,17.40
2022-11-19T23:38:15.009Z,19.77
2022-11-19T23:40:42.048Z,18.37
2022-11-19T23:43:09.191Z,15.60
2022-11-19T23:45:36.741Z,17.30
2022-11-19T23:48:03.803Z,16.50
2022-11-19T23:50:30.996Z,17.00
2022-11-19T23:52:58.105Z,17.93
2022-11-19T23:55:25.271Z,16.47
2022-11-19T23:57:52.391Z,15.37
